Time;durP1;ratioP1;P1;durP2;ratioP2;P2;SDS_P1;SDS_P2;PMS_P1;PMS_P2;Temp;Humidity;BMP_temperature;BMP_pressure;BME280_temperature;BME280_humidity;BME280_pressure;Samples;Min_cycle;Max_cycle;Signal;HPM_P1;HPM_P2
2023/05/18 00:00:17;;;;;;;8.63;1.97;;;14.40;69.00;;;;;;5004554;28;20217;-64
2023/05/18 00:02:47;;;;;;;6.23;1.87;;;14.40;69.60;;;;;;5002147;28;20184;-67
2023/05/18 00:05:16;;;;;;;8.33;1.70;;;14.40;70.10;;;;;;5005299;28;20185;-65
2023/05/18 00:07:45;;;;;;;6.07;1.90;;;14.50;70.70;;;;;;4998432;28;20182;-63
2023/05/18 00:10:12;;;;;;;4.10;1.53;;;14.60;70.10;;;;;;4996738;28;20860;-63
2023/05/18 00:12:40;;;;;;;4.73;1.80;;;14.60;70.50;;;;;;5004270;28;20320;-65
2023/05/18 00:15:09;;;;;;;5.17;1.70;;;14.70;69.80;;;;;;5004898;28;20193;-65
2023/05/18 00:17:36;;;;;;;7.83;2.00;;;14.80;69.40;;;;;;5000544;28;20193;-68
2023/05/18 00:20:04;;;;;;;6.30;1.60;;;14.90;69.70;;;;;;5005817;28;20194;-64
2023/05/18 00:22:31;;;;;;;4.80;1.40;;;14.80;69.50;;;;;;5005491;28;21369;-69
2023/05/18 00:24:58;;;;;;;9.20;1.40;;;14.80;69.90;;;;;;5003382;28;20198;-65
2023/05/18 00:27:26;;;;;;;11.47;1.97;;;14.80;70.00;;;;;;5002942;28;20750;-64
2023/05/18 00:29:53;;;;;;;9.93;1.77;;;14.90;69.70;;;;;;5004626;28;20625;-64
2023/05/18 00:32:20;;;;;;;7.47;1.93;;;14.90;69.70;;;;;;5007915;28;20260;-63
2023/05/18 00:34:48;;;;;;;6.67;1.77;;;15.00;69.90;;;;;;5004432;28;20216;-65
2023/05/18 00:37:15;;;;;;;4.50;1.70;;;15.20;69.40;;;;;;5002258;28;20653;-66
2023/05/18 00:39:43;;;;;;;3.43;1.70;;;15.20;69.00;;;;;;5004512;28;20205;-66
2023/05/18 00:42:10;;;;;;;8.13;1.50;;;15.20;68.60;;;;;;5004311;28;20186;-66
2023/05/18 00:44:37;;;;;;;7.70;1.37;;;15.30;69.00;;;;;;5002905;28;20604;-64
2023/05/18 00:47:05;;;;;;;5.70;1.90;;;15.30;68.20;;;;;;5004625;28;20194;-66
2023/05/18 00:49:32;;;;;;;3.93;1.83;;;15.40;67.60;;;;;;5003588;28;20299;-66
2023/05/18 00:52:00;;;;;;;5.90;1.60;;;15.60;68.00;;;;;;4999454;28;20270;-68
2023/05/18 00:54:28;;;;;;;6.33;1.60;;;15.70;67.20;;;;;;5003877;28;20730;-66
2023/05/18 00:56:55;;;;;;;4.73;1.43;;;15.80;67.00;;;;;;5000959;28;20198;-64
2023/05/18 00:59:22;;;;;;;4.17;1.53;;;15.70;66.70;;;;;;5002778;28;20656;-66
2023/05/18 01:01:50;;;;;;;5.93;1.40;;;15.80;67.50;;;;;;5002378;28;20189;-72
2023/05/18 01:04:20;;;;;;;3.83;1.50;;;16.00;66.80;;;;;;5007928;28;20295;-65
2023/05/18 01:06:47;;;;;;;6.77;1.97;;;16.20;66.90;;;;;;5010157;28;20181;-64
2023/05/18 01:09:15;;;;;;;3.40;1.60;;;16.30;66.30;;;;;;5006383;28;20189;-67
2023/05/18 01:12:00;;;;;;;5.17;1.50;;;16.50;66.60;;;;;;5007016;28;20185;-65
2023/05/18 01:15:07;;;;;;;8.43;1.40;;;16.50;66.30;;;;;;5005230;28;20216;-66
2023/05/18 01:17:44;;;;;;;4.57;1.80;;;16.80;65.80;;;;;;5010541;28;20279;-68
2023/05/18 01:20:38;;;;;;;5.17;1.67;;;17.20;64.90;;;;;;5007622;28;20215;-66
2023/05/18 01:23:28;;;;;;;3.53;1.30;;;17.20;63.20;;;;;;5007289;28;20216;-70
2023/05/18 01:25:55;;;;;;;5.07;1.60;;;17.10;64.10;;;;;;5010435;28;20253;-68
2023/05/18 01:28:31;;;;;;;4.70;1.57;;;17.00;64.60;;;;;;5013015;28;20180;-71
2023/05/18 01:30:59;;;;;;;3.53;1.40;;;16.80;64.80;;;;;;5003917;28;20183;-66
2023/05/18 01:33:27;;;;;;;4.27;1.40;;;16.90;65.10;;;;;;5009157;28;20217;-66
2023/05/18 01:35:54;;;;;;;9.33;1.47;;;17.20;64.20;;;;;;5003754;28;20689;-68
2023/05/18 01:38:25;;;;;;;6.07;1.40;;;17.10;63.70;;;;;;5010821;28;20267;-68
2023/05/18 01:41:15;;;;;;;4.67;1.37;;;16.80;64.60;;;;;;5009048;28;20676;-66
2023/05/18 01:44:01;;;;;;;4.17;1.23;;;17.20;63.40;;;;;;5006438;28;20192;-67
2023/05/18 01:46:34;;;;;;;4.10;1.43;;;17.70;62.80;;;;;;5003226;28;20193;-67
2023/05/18 01:49:13;;;;;;;5.33;1.50;;;18.00;61.20;;;;;;5004159;28;20178;-66
2023/05/18 01:51:45;;;;;;;3.53;1.20;;;17.90;60.70;;;;;;5003617;28;20176;-65
2023/05/18 01:54:17;;;;;;;6.73;1.60;;;17.70;61.90;;;;;;5004289;28;20654;-68
2023/05/18 01:56:46;;;;;;;6.73;1.73;;;17.60;62.80;;;;;;5003595;28;20184;-65
2023/05/18 01:59:15;;;;;;;3.47;1.00;;;17.20;63.00;;;;;;5005886;28;20196;-69
2023/05/18 02:01:43;;;;;;;7.33;1.70;;;16.90;64.00;;;;;;5007584;28;20216;-64
2023/05/18 02:04:11;;;;;;;6.17;1.43;;;16.80;65.30;;;;;;5004712;28;20238;-66
2023/05/18 02:06:38;;;;;;;2.50;1.40;;;16.70;65.40;;;;;;5010002;28;20189;-65
2023/05/18 02:09:05;;;;;;;4.77;1.70;;;16.60;65.50;;;;;;5006334;28;20194;-64
2023/05/18 02:11:33;;;;;;;2.83;1.30;;;16.90;65.10;;;;;;5009020;28;20185;-71
2023/05/18 02:14:00;;;;;;;4.80;1.40;;;17.30;63.90;;;;;;5007204;28;20319;-69
2023/05/18 02:16:27;;;;;;;3.80;1.40;;;17.40;63.00;;;;;;5006745;28;20651;-64
2023/05/18 02:18:55;;;;;;;2.83;1.37;;;17.50;63.50;;;;;;5007117;28;20197;-73
2023/05/18 02:21:22;;;;;;;4.03;1.13;;;17.60;63.90;;;;;;5007115;28;20191;-64
2023/05/18 02:23:49;;;;;;;6.40;1.80;;;17.90;62.20;;;;;;5002123;28;20725;-67
2023/05/18 02:26:17;;;;;;;4.27;1.43;;;17.80;61.30;;;;;;5002651;28;20682;-68
2023/05/18 02:28:44;;;;;;;5.40;1.30;;;18.00;60.70;;;;;;5007497;28;20188;-66
2023/05/18 02:31:12;;;;;;;4.23;1.20;;;18.30;60.70;;;;;;5003244;28;20268;-68
2023/05/18 02:33:39;;;;;;;2.57;1.07;;;18.30;60.10;;;;;;5006554;28;20225;-64
2023/05/18 02:36:08;;;;;;;4.80;0.93;;;17.80;61.90;;;;;;5005401;28;20197;-66
2023/05/18 02:38:37;;;;;;;5.13;1.13;;;17.80;62.20;;;;;;5005671;28;20915;-65
2023/05/18 02:41:05;;;;;;;2.60;0.90;;;17.80;62.80;;;;;;5005806;28;20188;-65
2023/05/18 02:43:32;;;;;;;4.73;1.07;;;18.00;60.30;;;;;;5002902;28;20181;-65
2023/05/18 02:46:00;;;;;;;2.47;1.23;;;17.60;60.80;;;;;;5006277;28;20210;-67
2023/05/18 02:48:27;;;;;;;3.13;1.37;;;17.50;62.30;;;;;;5002462;28;20225;-67
2023/05/18 02:50:55;;;;;;;2.40;1.20;;;18.00;61.60;;;;;;5004210;28;20545;-68
2023/05/18 02:53:23;;;;;;;5.10;1.30;;;18.30;59.50;;;;;;5005616;28;20353;-64
2023/05/18 02:55:57;;;;;;;5.03;1.20;;;18.50;58.30;;;;;;5004365;28;20198;-66
2023/05/18 02:58:25;;;;;;;3.73;1.37;;;18.50;58.70;;;;;;5003828;28;20185;-65
2023/05/18 03:00:54;;;;;;;2.37;1.10;;;18.60;56.90;;;;;;5006238;28;20192;-67
2023/05/18 03:03:22;;;;;;;5.50;1.17;;;18.10;57.50;;;;;;5000420;28;20197;-64
2023/05/18 03:05:53;;;;;;;2.33;1.13;;;17.60;59.20;;;;;;5004822;28;20189;-66
2023/05/18 03:08:25;;;;;;;3.37;1.20;;;17.30;60.70;;;;;;5002753;28;20265;-64
2023/05/18 03:10:53;;;;;;;4.47;1.70;;;17.20;61.80;;;;;;5005000;28;20639;-65
2023/05/18 03:13:20;;;;;;;4.50;1.40;;;17.20;62.20;;;;;;5006176;28;20263;-64
2023/05/18 03:15:49;;;;;;;6.23;1.30;;;17.10;62.20;;;;;;5004720;28;20217;-67
2023/05/18 03:18:20;;;;;;;3.43;1.13;;;17.00;62.80;;;;;;5007294;28;20224;-69
2023/05/18 03:20:50;;;;;;;3.60;1.27;;;16.90;63.40;;;;;;5005421;28;20332;-66
2023/05/18 03:23:19;;;;;;;6.57;1.63;;;16.90;64.00;;;;;;5002301;28;20188;-67
2023/05/18 03:25:53;;;;;;;4.30;1.27;;;16.90;64.20;;;;;;5006291;28;20186;-64
2023/05/18 03:28:21;;;;;;;7.83;1.67;;;16.90;64.60;;;;;;5004762;28;20685;-65
2023/05/18 03:30:48;;;;;;;7.93;1.33;;;16.80;63.50;;;;;;5009912;28;20271;-65
2023/05/18 03:33:16;;;;;;;4.03;1.57;;;16.80;64.30;;;;;;5004816;28;20671;-64
2023/05/18 03:35:44;;;;;;;3.93;1.53;;;16.80;64.50;;;;;;5004966;28;20272;-64
2023/05/18 03:38:11;;;;;;;4.37;1.60;;;16.80;65.00;;;;;;5003655;28;20199;-63
2023/05/18 03:40:38;;;;;;;5.67;1.60;;;16.90;64.80;;;;;;5003680;28;20535;-65
2023/05/18 03:43:06;;;;;;;6.73;1.57;;;17.00;63.60;;;;;;5000385;28;20366;-64
2023/05/18 03:45:33;;;;;;;5.13;1.43;;;17.00;62.80;;;;;;5004818;28;20188;-67
2023/05/18 03:48:00;;;;;;;6.63;2.00;;;17.00;63.40;;;;;;5002467;28;20198;-67
2023/05/18 03:50:28;;;;;;;6.23;1.83;;;17.10;63.40;;;;;;5004377;28;20189;-64
2023/05/18 03:52:55;;;;;;;5.87;1.60;;;17.70;61.90;;;;;;4999917;28;20213;-64
2023/05/18 03:55:22;;;;;;;4.70;1.23;;;18.20;59.80;;;;;;5005343;28;20185;-67
2023/05/18 03:57:50;;;;;;;3.97;1.20;;;18.20;59.80;;;;;;5005519;28;20201;-64
2023/05/18 04:00:17;;;;;;;6.77;1.33;;;18.80;59.60;;;;;;5007491;28;20185;-68
2023/05/18 04:02:45;;;;;;;7.03;1.30;;;19.50;56.20;;;;;;5001039;28;20182;-69
2023/05/18 04:05:13;;;;;;;5.23;1.23;;;19.70;55.80;;;;;;5002743;28;20248;-66
2023/05/18 04:07:45;;;;;;;3.97;1.20;;;20.10;54.30;;;;;;5002548;28;20194;-66
2023/05/18 04:10:13;;;;;;;6.33;1.43;;;20.00;53.10;;;;;;5005400;28;20533;-64
2023/05/18 04:12:41;;;;;;;4.70;1.40;;;20.00;53.10;;;;;;5002581;28;20572;-64
2023/05/18 04:15:09;;;;;;;5.20;1.27;;;20.30;52.60;;;;;;5002109;28;20190;-67
2023/05/18 04:17:38;;;;;;;6.87;1.80;;;20.50;51.70;;;;;;5003221;28;20194;-65
2023/05/18 04:20:18;;;;;;;5.70;1.50;;;19.70;52.90;;;;;;5003870;28;20202;-64
2023/05/18 04:22:47;;;;;;;4.57;1.47;;;18.80;56.10;;;;;;5004243;28;20264;-66
2023/05/18 04:25:15;;;;;;;4.87;1.20;;;18.80;56.60;;;;;;5004361;28;20185;-65
2023/05/18 04:27:46;;;;;;;5.80;0.97;;;19.20;56.40;;;;;;5003582;28;20201;-64
2023/05/18 04:30:13;;;;;;;7.33;1.20;;;19.70;53.80;;;;;;5003195;28;20292;-64
2023/05/18 04:32:41;;;;;;;2.27;0.93;;;19.40;55.10;;;;;;4997570;28;20229;-67
2023/05/18 04:35:10;;;;;;;4.97;1.30;;;19.10;55.50;;;;;;5004458;28;20181;-69
2023/05/18 04:37:41;;;;;;;3.13;1.20;;;18.50;57.30;;;;;;5005675;28;20707;-67
2023/05/18 04:40:12;;;;;;;7.37;1.43;;;18.00;58.80;;;;;;5004099;28;20181;-66
2023/05/18 04:42:46;;;;;;;2.53;1.07;;;18.00;58.70;;;;;;5008496;28;20251;-64
2023/05/18 04:45:21;;;;;;;3.87;1.27;;;18.50;57.40;;;;;;4999860;28;20716;-65
2023/05/18 04:47:52;;;;;;;4.47;1.33;;;18.50;57.30;;;;;;5007261;28;20276;-64
2023/05/18 04:50:22;;;;;;;3.70;1.73;;;19.20;55.60;;;;;;5003332;28;20219;-71
2023/05/18 04:52:51;;;;;;;5.33;1.40;;;19.60;53.90;;;;;;4996229;28;20240;-65
2023/05/18 04:55:26;;;;;;;6.77;1.30;;;20.30;53.40;;;;;;5001447;28;20201;-70
2023/05/18 04:57:55;;;;;;;5.00;1.47;;;20.60;51.70;;;;;;5005026;28;20687;-70
2023/05/18 05:00:27;;;;;;;4.70;1.13;;;20.00;52.20;;;;;;4998387;28;20189;-63
2023/05/18 05:02:56;;;;;;;6.80;1.30;;;19.00;55.30;;;;;;5000147;28;20284;-65
2023/05/18 05:05:24;;;;;;;4.13;0.90;;;18.60;57.90;;;;;;5008349;28;20217;-67
2023/05/18 05:07:53;;;;;;;5.60;1.20;;;18.00;57.90;;;;;;5004881;28;20195;-66
2023/05/18 05:10:21;;;;;;;5.70;1.53;;;17.50;59.90;;;;;;5001215;28;20185;-63
2023/05/18 05:12:50;;;;;;;5.87;1.37;;;17.30;60.80;;;;;;5003881;28;20242;-65
2023/05/18 05:15:18;;;;;;;5.53;1.30;;;17.20;61.40;;;;;;5007135;28;20192;-65
2023/05/18 05:17:49;;;;;;;4.47;1.77;;;17.30;61.50;;;;;;5004728;28;20247;-64
2023/05/18 05:20:17;;;;;;;10.90;1.17;;;18.60;58.40;;;;;;5002940;28;20534;-65
2023/05/18 05:22:44;;;;;;;6.33;1.37;;;18.80;57.10;;;;;;5000420;28;20255;-65
2023/05/18 05:25:12;;;;;;;10.57;1.53;;;18.80;57.40;;;;;;5001261;28;20181;-66
2023/05/18 05:27:39;;;;;;;6.00;1.27;;;18.90;56.30;;;;;;5002408;28;20202;-64
2023/05/18 05:30:07;;;;;;;4.43;1.40;;;18.70;57.80;;;;;;5002547;28;21259;-66
2023/05/18 05:32:35;;;;;;;4.27;1.50;;;18.40;58.60;;;;;;5002337;28;20212;-65
2023/05/18 05:35:03;;;;;;;5.83;1.07;;;19.20;55.30;;;;;;5000764;28;20196;-66
2023/05/18 05:37:30;;;;;;;6.80;1.40;;;18.80;56.70;;;;;;5000419;28;20611;-67
2023/05/18 05:39:58;;;;;;;11.77;1.30;;;18.40;56.90;;;;;;5008828;28;20221;-67
2023/05/18 05:42:25;;;;;;;7.13;1.53;;;18.80;57.50;;;;;;5003075;28;20648;-66
2023/05/18 05:44:52;;;;;;;5.80;1.80;;;19.40;58.60;;;;;;4997354;28;20268;-69
2023/05/18 05:47:20;;;;;;;6.80;1.37;;;19.60;59.40;;;;;;5001891;28;20212;-67
2023/05/18 05:49:47;;;;;;;8.43;1.60;;;19.70;58.40;;;;;;5006967;28;20302;-66
2023/05/18 05:52:14;;;;;;;7.03;1.93;;;19.80;58.90;;;;;;5008250;28;20196;-66
2023/05/18 05:54:42;;;;;;;9.33;1.47;;;19.20;60.30;;;;;;5007500;28;20529;-64
2023/05/18 05:57:09;;;;;;;7.70;1.20;;;18.40;62.10;;;;;;5006381;28;20213;-64
2023/05/18 05:59:36;;;;;;;4.93;1.30;;;18.60;62.30;;;;;;5009755;28;20710;-64
2023/05/18 06:02:04;;;;;;;4.97;1.10;;;18.30;62.40;;;;;;5006056;28;20189;-64
2023/05/18 06:04:31;;;;;;;6.40;1.60;;;17.80;65.00;;;;;;5006461;28;20193;-64
2023/05/18 06:06:58;;;;;;;9.00;1.40;;;17.50;66.40;;;;;;5007551;28;20209;-68
2023/05/18 06:09:26;;;;;;;5.30;1.20;;;17.20;67.30;;;;;;5006966;28;20979;-64
2023/05/18 06:11:54;;;;;;;6.10;1.10;;;17.00;68.40;;;;;;5006906;28;20189;-64
2023/05/18 06:14:21;;;;;;;11.47;2.00;;;16.60;69.60;;;;;;5006534;28;20213;-64
2023/05/18 06:16:51;;;;;;;4.63;1.40;;;16.50;70.30;;;;;;5004501;28;20229;-63
2023/05/18 06:19:19;;;;;;;8.90;2.00;;;16.30;70.70;;;;;;5004618;28;20189;-66
2023/05/18 06:21:46;;;;;;;5.67;1.60;;;16.10;70.80;;;;;;5005888;28;20187;-63
2023/05/18 06:24:13;;;;;;;4.33;1.20;;;16.00;71.10;;;;;;5003856;28;20176;-68
2023/05/18 06:26:41;;;;;;;6.37;1.60;;;16.00;71.10;;;;;;5008708;28;20741;-63
2023/05/18 06:29:08;;;;;;;12.93;1.80;;;15.90;71.40;;;;;;5006727;28;20644;-69
2023/05/18 06:31:35;;;;;;;12.30;1.90;;;15.80;71.50;;;;;;5003173;28;20229;-67
2023/05/18 06:34:03;;;;;;;10.80;1.40;;;15.80;71.80;;;;;;5006685;28;20214;-64
2023/05/18 06:36:30;;;;;;;9.23;1.60;;;15.80;72.20;;;;;;5002277;28;20625;-70
2023/05/18 06:38:58;;;;;;;8.40;1.63;;;15.70;72.30;;;;;;5004552;28;20208;-69
2023/05/18 06:41:25;;;;;;;4.30;1.53;;;15.70;72.20;;;;;;5003859;28;20181;-63
2023/05/18 06:43:52;;;;;;;4.70;1.70;;;15.60;72.70;;;;;;5004378;28;20655;-69
2023/05/18 06:46:21;;;;;;;3.60;1.40;;;15.60;72.90;;;;;;5007816;28;20227;-63
2023/05/18 06:48:49;;;;;;;5.77;1.33;;;15.50;72.90;;;;;;5003633;28;20232;-64
2023/05/18 06:51:16;;;;;;;6.17;1.90;;;15.40;73.30;;;;;;5003160;28;20388;-68
2023/05/18 06:53:46;;;;;;;7.07;1.43;;;15.40;73.50;;;;;;5006035;28;20214;-65
2023/05/18 06:56:15;;;;;;;4.93;1.67;;;15.30;73.50;;;;;;5004624;28;20192;-64
2023/05/18 06:58:43;;;;;;;7.07;1.57;;;15.30;73.20;;;;;;5006365;28;20228;-68
2023/05/18 07:01:10;;;;;;;6.07;1.67;;;15.30;72.70;;;;;;5004727;28;20251;-63
2023/05/18 07:03:38;;;;;;;4.27;1.33;;;15.20;72.30;;;;;;5002217;28;20709;-65
2023/05/18 07:06:05;;;;;;;6.50;1.60;;;15.20;71.70;;;;;;5006752;28;20280;-64
2023/05/18 07:08:35;;;;;;;4.17;1.50;;;15.10;72.00;;;;;;4999397;28;20663;-65
2023/05/18 07:11:04;;;;;;;4.13;1.63;;;15.10;71.70;;;;;;5007636;28;20193;-67
2023/05/18 07:13:31;;;;;;;5.40;1.43;;;15.10;71.90;;;;;;5008272;28;20213;-64
2023/05/18 07:15:59;;;;;;;9.43;2.20;;;15.10;71.80;;;;;;5003081;28;20229;-69
2023/05/18 07:18:26;;;;;;;12.37;2.00;;;15.10;72.20;;;;;;5001542;28;20837;-64
2023/05/18 07:20:53;;;;;;;4.80;1.80;;;15.10;72.40;;;;;;5004705;28;20190;-67
2023/05/18 07:23:21;;;;;;;4.23;1.70;;;15.00;72.70;;;;;;5003487;28;20878;-67
2023/05/18 07:25:48;;;;;;;14.07;2.20;;;15.00;72.80;;;;;;5004105;28;20185;-65
2023/05/18 07:28:16;;;;;;;11.33;2.07;;;15.00;73.00;;;;;;4996873;28;20205;-64
2023/05/18 07:30:43;;;;;;;8.90;2.03;;;15.00;73.00;;;;;;4998155;28;20173;-65
2023/05/18 07:33:10;;;;;;;4.60;1.80;;;15.00;73.20;;;;;;5006020;28;20201;-66
2023/05/18 07:35:38;;;;;;;5.47;2.17;;;15.00;73.30;;;;;;5005915;28;20536;-64
2023/05/18 07:38:05;;;;;;;9.50;2.33;;;14.90;73.70;;;;;;5003444;28;20225;-69
2023/05/18 07:40:32;;;;;;;8.80;2.03;;;14.80;73.70;;;;;;5005364;28;20243;-65
2023/05/18 07:43:00;;;;;;;5.53;2.17;;;14.80;73.50;;;;;;5002054;28;20217;-64
2023/05/18 07:45:27;;;;;;;4.23;2.20;;;14.80;72.50;;;;;;5007503;28;20193;-64
2023/05/18 07:47:54;;;;;;;8.33;1.60;;;14.80;71.90;;;;;;5005101;28;20198;-64
2023/05/18 07:50:22;;;;;;;5.73;1.90;;;14.80;71.80;;;;;;5004971;28;20181;-64
2023/05/18 07:52:49;;;;;;;9.17;2.13;;;14.80;73.00;;;;;;5001564;28;20233;-68
2023/05/18 07:55:17;;;;;;;3.83;1.90;;;14.80;74.30;;;;;;5006020;28;20181;-69
2023/05/18 07:57:44;;;;;;;9.27;1.97;;;14.80;74.80;;;;;;5009245;28;20189;-64
2023/05/18 08:00:12;;;;;;;7.27;1.70;;;14.80;75.50;;;;;;5006874;28;20201;-64
2023/05/18 08:02:40;;;;;;;7.00;1.73;;;14.80;76.20;;;;;;5005214;28;20185;-64
2023/05/18 08:05:09;;;;;;;5.90;1.63;;;14.70;76.50;;;;;;5004650;28;20183;-69
2023/05/18 08:07:37;;;;;;;7.57;1.83;;;14.70;76.80;;;;;;5002581;28;20189;-64
2023/05/18 08:10:04;;;;;;;8.50;2.23;;;14.60;77.20;;;;;;5006761;28;20231;-64
2023/05/18 08:12:32;;;;;;;11.47;2.10;;;14.70;77.70;;;;;;5000371;28;20207;-67
2023/05/18 08:14:59;;;;;;;8.47;2.63;;;14.70;77.90;;;;;;5004069;28;20229;-71
2023/05/18 08:17:26;;;;;;;11.23;2.00;;;14.60;78.40;;;;;;4999309;28;20266;-64
2023/05/18 08:19:55;;;;;;;9.73;2.00;;;14.50;79.10;;;;;;5001742;28;20601;-65
2023/05/18 08:22:23;;;;;;;13.03;2.53;;;14.50;79.40;;;;;;5004663;28;20216;-69
2023/05/18 08:24:50;;;;;;;7.57;2.17;;;14.50;79.60;;;;;;5002702;28;20228;-65
2023/05/18 08:27:18;;;;;;;9.13;2.97;;;14.50;79.60;;;;;;5003564;28;20679;-65
2023/05/18 08:29:46;;;;;;;7.57;2.30;;;14.50;80.20;;;;;;4998606;28;20182;-66
2023/05/18 08:32:15;;;;;;;8.53;2.53;;;14.50;80.20;;;;;;5002436;28;20278;-65
2023/05/18 08:34:43;;;;;;;7.57;2.43;;;14.50;80.40;;;;;;5001585;28;20702;-65
2023/05/18 08:37:10;;;;;;;7.70;2.90;;;14.50;80.50;;;;;;5005066;28;20733;-66
2023/05/18 08:39:37;;;;;;;9.07;2.60;;;14.50;80.60;;;;;;5002654;28;20660;-65
2023/05/18 08:42:16;;;;;;;13.60;2.63;;;14.50;80.60;;;;;;4999536;28;20196;-68
2023/05/18 08:45:38;;;;;;;10.50;2.43;;;14.50;80.80;;;;;;5005686;28;20216;-66
2023/05/18 08:48:07;;;;;;;8.87;2.30;;;14.50;80.60;;;;;;4968361;28;20208;-66
2023/05/18 08:50:35;;;;;;;13.67;2.40;;;14.40;80.70;;;;;;5007036;28;20209;-63
2023/05/18 08:53:05;;;;;;;10.10;2.93;;;14.40;80.60;;;;;;5004060;28;20267;-63
2023/05/18 08:55:36;;;;;;;14.60;3.33;;;14.40;80.70;;;;;;5010133;28;20193;-64
2023/05/18 08:58:06;;;;;;;12.67;3.53;;;14.40;80.90;;;;;;5000683;28;20193;-64
2023/05/18 09:00:33;;;;;;;9.93;2.80;;;14.40;80.50;;;;;;5007570;28;20190;-67
2023/05/18 09:03:03;;;;;;;12.23;3.33;;;14.40;80.30;;;;;;5002449;28;20210;-65
2023/05/18 09:05:30;;;;;;;10.23;3.77;;;14.30;79.90;;;;;;5006814;28;20179;-66
2023/05/18 09:07:58;;;;;;;6.50;3.50;;;14.30;79.40;;;;;;5005527;28;20281;-63
2023/05/18 09:10:26;;;;;;;19.03;4.13;;;14.40;79.10;;;;;;5004122;28;20208;-68
2023/05/18 09:12:55;;;;;;;12.10;3.07;;;14.40;78.80;;;;;;5009512;28;20304;-65
2023/05/18 09:15:24;;;;;;;10.10;2.60;;;14.50;78.80;;;;;;5004771;28;20248;-63
2023/05/18 09:17:51;;;;;;;9.23;2.67;;;14.60;78.90;;;;;;5002294;28;20190;-66
2023/05/18 09:20:20;;;;;;;10.53;2.70;;;14.60;79.10;;;;;;5000126;28;20177;-70
2023/05/18 09:22:50;;;;;;;5.73;2.30;;;14.70;79.00;;;;;;5003321;28;20660;-69
2023/05/18 09:25:18;;;;;;;9.80;2.53;;;14.70;79.10;;;;;;5006741;28;20193;-65
2023/05/18 09:27:48;;;;;;;11.57;2.80;;;14.70;79.20;;;;;;5008153;28;20177;-65
2023/05/18 09:30:15;;;;;;;7.63;2.17;;;14.60;78.40;;;;;;5006799;28;20191;-64
2023/05/18 09:32:45;;;;;;;9.10;2.33;;;14.40;77.50;;;;;;5003989;28;20218;-66
2023/05/18 09:35:13;;;;;;;4.83;2.07;;;14.30;76.60;;;;;;5005109;28;20183;-65
2023/05/18 09:37:45;;;;;;;11.20;2.33;;;14.30;76.70;;;;;;5000061;28;20216;-65
2023/05/18 09:40:13;;;;;;;3.27;1.57;;;14.30;76.80;;;;;;5008020;28;20651;-71
2023/05/18 09:42:44;;;;;;;5.27;1.40;;;14.10;76.00;;;;;;5005408;28;20227;-63
2023/05/18 09:45:22;;;;;;;2.87;1.27;;;14.00;75.10;;;;;;5004413;28;20185;-68
2023/05/18 09:47:50;;;;;;;4.03;1.30;;;13.90;74.30;;;;;;5009698;28;20224;-64
2023/05/18 09:50:24;;;;;;;5.33;1.50;;;13.80;74.50;;;;;;5009192;28;20192;-67
2023/05/18 09:52:52;;;;;;;8.03;1.43;;;13.80;74.80;;;;;;5008727;28;20259;-65
2023/05/18 09:55:20;;;;;;;4.13;1.67;;;13.80;75.20;;;;;;5004754;28;20181;-66
2023/05/18 09:57:49;;;;;;;7.10;1.67;;;13.70;75.30;;;;;;5004580;28;20185;-63
2023/05/18 10:00:18;;;;;;;3.30;1.67;;;13.70;75.90;;;;;;5006374;28;20208;-69
2023/05/18 10:02:50;;;;;;;5.00;1.20;;;13.70;76.20;;;;;;5006100;28;20663;-67
2023/05/18 10:05:33;;;;;;;8.17;1.83;;;13.70;76.30;;;;;;5006728;28;20808;-68
2023/05/18 10:08:01;;;;;;;4.93;2.07;;;13.70;76.00;;;;;;5003288;28;20177;-68
2023/05/18 10:10:30;;;;;;;3.53;1.40;;;13.70;76.20;;;;;;5010276;28;20581;-63
2023/05/18 10:13:07;;;;;;;10.30;2.13;;;13.70;76.70;;;;;;5007055;28;20212;-63
2023/05/18 10:15:40;;;;;;;8.43;2.67;;;13.70;77.40;;;;;;4993509;28;20708;-66
2023/05/18 10:18:10;;;;;;;5.97;1.60;;;13.70;78.00;;;;;;5004484;28;20198;-64
2023/05/18 10:20:41;;;;;;;5.07;1.20;;;13.60;78.50;;;;;;5002850;28;20647;-63
2023/05/18 10:23:13;;;;;;;7.20;1.87;;;13.60;79.10;;;;;;5003958;28;20204;-64
2023/05/18 10:25:53;;;;;;;6.87;1.90;;;13.60;79.40;;;;;;5010267;28;20193;-63
2023/05/18 10:28:35;;;;;;;12.17;2.50;;;13.60;79.80;;;;;;5005335;28;20185;-64
2023/05/18 10:31:05;;;;;;;5.97;1.60;;;13.60;80.20;;;;;;5010530;28;20544;-67
2023/05/18 10:33:35;;;;;;;5.80;1.33;;;13.50;80.20;;;;;;5003434;28;20215;-66
2023/05/18 10:36:05;;;;;;;9.33;1.70;;;13.50;80.20;;;;;;5007079;28;20190;-64
2023/05/18 10:38:37;;;;;;;6.53;1.77;;;13.50;79.80;;;;;;5006671;28;20193;-67
2023/05/18 10:41:07;;;;;;;4.13;1.70;;;13.40;80.00;;;;;;5008853;28;20216;-64
2023/05/18 10:43:35;;;;;;;7.47;1.90;;;13.40;80.00;;;;;;5006425;28;20181;-65
2023/05/18 10:46:04;;;;;;;4.30;1.87;;;13.40;80.00;;;;;;5005969;28;20552;-65
2023/05/18 10:48:35;;;;;;;7.33;1.97;;;13.40;80.20;;;;;;5005791;28;20186;-64
2023/05/18 10:51:06;;;;;;;11.67;2.33;;;13.40;80.30;;;;;;5004863;28;20186;-64
2023/05/18 10:53:35;;;;;;;10.17;2.23;;;13.40;80.70;;;;;;5003804;28;20551;-64
2023/05/18 10:56:02;;;;;;;10.03;2.20;;;13.30;80.90;;;;;;5005818;28;20174;-65
2023/05/18 10:58:31;;;;;;;8.83;2.07;;;13.30;81.20;;;;;;5002133;28;20181;-64
2023/05/18 11:01:05;;;;;;;6.20;2.77;;;13.30;81.60;;;;;;5005717;28;20182;-64
2023/05/18 11:03:33;;;;;;;6.70;2.70;;;13.20;81.80;;;;;;5006152;28;20189;-67
2023/05/18 11:06:10;;;;;;;6.87;2.50;;;13.20;82.40;;;;;;5007049;28;20185;-64
2023/05/18 11:08:49;;;;;;;7.70;2.73;;;13.20;82.60;;;;;;5005651;28;20216;-65
2023/05/18 11:11:18;;;;;;;8.23;2.90;;;13.20;82.90;;;;;;5002869;28;20248;-66
2023/05/18 11:13:48;;;;;;;5.70;2.90;;;13.10;83.10;;;;;;5002380;28;20228;-66
2023/05/18 11:16:17;;;;;;;5.37;3.17;;;13.00;83.10;;;;;;5003232;28;20229;-64
2023/05/18 11:18:49;;;;;;;7.20;2.97;;;13.00;83.50;;;;;;5003384;28;20208;-66
2023/05/18 11:21:22;;;;;;;7.77;3.17;;;13.00;83.80;;;;;;5006248;28;20188;-65
2023/05/18 11:24:24;;;;;;;5.83;2.90;;;12.90;84.00;;;;;;5005904;28;20197;-65
2023/05/18 11:27:02;;;;;;;7.53;3.53;;;12.80;84.50;;;;;;4975908;28;20551;-64
2023/05/18 11:29:34;;;;;;;5.30;3.60;;;12.80;84.60;;;;;;5006252;28;20268;-65
2023/05/18 11:32:01;;;;;;;8.30;3.50;;;12.80;84.80;;;;;;5011533;28;20173;-65
2023/05/18 11:34:36;;;;;;;13.87;3.90;;;12.70;84.90;;;;;;5005158;28;20576;-64
2023/05/18 11:37:04;;;;;;;8.10;3.57;;;12.70;85.10;;;;;;5003432;28;20223;-67
2023/05/18 11:39:32;;;;;;;8.53;3.93;;;12.60;84.80;;;;;;5003377;28;20185;-69
2023/05/18 11:42:07;;;;;;;6.33;3.93;;;12.60;85.20;;;;;;5007676;28;20280;-65
2023/05/18 11:44:35;;;;;;;7.60;3.97;;;12.60;85.30;;;;;;5002985;28;20184;-65
2023/05/18 11:47:10;;;;;;;14.97;4.20;;;12.50;85.10;;;;;;5006678;28;20550;-65
2023/05/18 11:49:37;;;;;;;13.27;4.57;;;12.50;85.30;;;;;;5003097;28;20271;-66
2023/05/18 11:52:12;;;;;;;7.63;4.30;;;12.40;85.30;;;;;;5003455;28;20606;-65
2023/05/18 11:55:00;;;;;;;6.90;4.40;;;12.40;85.40;;;;;;5004313;28;20193;-65
2023/05/18 11:57:39;;;;;;;9.80;4.33;;;12.40;85.60;;;;;;5004806;28;20189;-64
2023/05/18 12:00:13;;;;;;;7.90;4.77;;;12.30;85.50;;;;;;5002812;28;20199;-66
2023/05/18 12:02:46;;;;;;;11.20;4.80;;;12.30;85.60;;;;;;5002388;28;20193;-68
2023/05/18 12:05:15;;;;;;;9.73;6.00;;;12.20;85.70;;;;;;5007465;28;20196;-70
2023/05/18 12:07:43;;;;;;;11.37;5.40;;;12.20;85.90;;;;;;5004182;28;20285;-67
2023/05/18 12:10:15;;;;;;;11.43;5.80;;;12.20;85.90;;;;;;5007104;28;20185;-68
2023/05/18 12:12:46;;;;;;;11.00;6.00;;;12.20;85.90;;;;;;5002144;28;20225;-67
2023/05/18 12:15:14;;;;;;;11.73;5.90;;;12.10;85.80;;;;;;5000288;28;20671;-69
2023/05/18 12:17:48;;;;;;;13.20;5.90;;;12.00;86.00;;;;;;5003903;28;20239;-70
2023/05/18 12:20:21;;;;;;;7.13;5.47;;;12.00;86.10;;;;;;5001199;28;20172;-70
2023/05/18 12:22:53;;;;;;;12.70;6.10;;;12.00;86.00;;;;;;5006061;28;20225;-68
2023/05/18 12:25:25;;;;;;;10.43;5.13;;;11.90;85.90;;;;;;5003513;28;20182;-65
2023/05/18 12:27:54;;;;;;;6.10;5.10;;;11.80;85.60;;;;;;5004284;28;20219;-65
2023/05/18 12:30:44;;;;;;;9.20;4.77;;;11.80;85.10;;;;;;5005161;28;20713;-68
2023/05/18 12:33:12;;;;;;;9.40;5.07;;;11.70;84.80;;;;;;5003257;28;20697;-67
2023/05/18 12:35:40;;;;;;;8.77;3.90;;;11.70;84.00;;;;;;5003030;28;20190;-68
2023/05/18 12:38:08;;;;;;;7.40;3.33;;;11.60;82.80;;;;;;5002268;28;20185;-70
2023/05/18 12:40:45;;;;;;;7.53;3.23;;;11.60;82.00;;;;;;5003596;28;20232;-70
2023/05/18 12:43:12;;;;;;;6.77;3.20;;;11.70;81.40;;;;;;5002173;28;20643;-64
2023/05/18 12:45:43;;;;;;;3.90;3.07;;;11.60;80.30;;;;;;5000966;28;20249;-67
2023/05/18 12:48:13;;;;;;;6.37;2.80;;;11.60;79.90;;;;;;5000780;28;20181;-67
2023/05/18 12:50:49;;;;;;;3.80;2.70;;;11.60;80.00;;;;;;4999763;28;20185;-66
2023/05/18 12:53:17;;;;;;;5.13;2.70;;;11.50;79.20;;;;;;5000738;28;20927;-66
2023/05/18 12:55:44;;;;;;;4.53;2.70;;;11.50;79.30;;;;;;5003223;28;20185;-66
2023/05/18 12:58:17;;;;;;;4.33;2.90;;;11.50;79.40;;;;;;5006091;28;20181;-64